Time;durP1;ratioP1;P1;durP2;ratioP2;P2;SDS_P1;SDS_P2;PMS_P1;PMS_P2;Temp;Humidity;BMP_temperature;BMP_pressure;BME280_temperature;BME280_humidity;BME280_pressure;Samples;Min_cycle;Max_cycle;Signal;HPM_P1;HPM_P2
2023/05/10 00:03:24;;;;;;;1.20;1.10;;;20.80;59.20;;;;;;8364785;28;20047;-47
2023/05/10 00:07:25;;;;;;;2.20;1.55;;;20.80;59.20;;;;;;8363659;28;20041;-47
2023/05/10 00:11:26;;;;;;;3.08;1.70;;;20.70;59.10;;;;;;8362458;28;20033;-47
2023/05/10 00:15:26;;;;;;;4.78;1.20;;;20.70;59.10;;;;;;8364539;28;20029;-47
2023/05/10 00:19:27;;;;;;;1.67;1.00;;;20.80;59.20;;;;;;8362795;28;20033;-48
2023/05/10 00:23:28;;;;;;;3.72;1.77;;;20.70;59.20;;;;;;8363539;28;20029;-46
2023/05/10 00:27:28;;;;;;;2.92;1.30;;;20.70;59.10;;;;;;8364009;28;20037;-47
2023/05/10 00:31:29;;;;;;;1.77;1.35;;;20.70;59.10;;;;;;8364091;28;20021;-47
2023/05/10 00:35:29;;;;;;;2.58;1.20;;;20.70;59.20;;;;;;8363830;28;20040;-47
2023/05/10 00:39:30;;;;;;;1.58;1.20;;;20.70;59.20;;;;;;8363873;28;20384;-46
2023/05/10 00:43:31;;;;;;;1.42;0.90;;;20.70;59.20;;;;;;8362307;28;20545;-48
2023/05/10 00:47:32;;;;;;;2.27;1.30;;;20.80;59.20;;;;;;8363307;28;20407;-46
2023/05/10 00:51:32;;;;;;;2.17;1.15;;;20.80;59.20;;;;;;8363284;28;20765;-47
2023/05/10 00:55:33;;;;;;;2.17;1.30;;;20.80;59.10;;;;;;8363752;28;20032;-46
2023/05/10 00:59:34;;;;;;;1.52;1.10;;;20.70;59.10;;;;;;8361885;28;20060;-48
2023/05/10 01:03:35;;;;;;;2.20;1.02;;;20.70;59.10;;;;;;8362855;28;20028;-46
2023/05/10 01:07:36;;;;;;;2.63;1.17;;;20.70;59.10;;;;;;8363254;28;20546;-49
2023/05/10 01:11:39;;;;;;;1.15;0.95;;;20.80;59.10;;;;;;8362852;28;20098;-48
2023/05/10 01:15:40;;;;;;;1.95;1.02;;;20.70;59.00;;;;;;8362400;28;20410;-47
2023/05/10 01:19:41;;;;;;;;;;;20.70;59.00;;;;;;8363191;28;20041;-47
2023/05/10 01:24:07;;;;;;;1.53;0.93;;;20.80;59.10;;;;;;8362863;28;20397;-46
2023/05/10 01:28:45;;;;;;;1.98;1.00;;;20.70;59.10;;;;;;8318984;28;20513;-46
2023/05/10 01:33:00;;;;;;;1.50;1.13;;;20.70;59.10;;;;;;8337506;28;20027;-45
2023/05/10 01:37:10;;;;;;;1.02;0.90;;;20.70;59.10;;;;;;8358560;28;20029;-46
2023/05/10 01:41:25;;;;;;;2.08;1.05;;;20.70;59.30;;;;;;8359254;28;20028;-48
2023/05/10 01:45:47;;;;;;;1.55;0.90;;;20.70;59.30;;;;;;8359122;28;20035;-45
2023/05/10 01:49:51;;;;;;;1.85;1.10;;;20.60;59.30;;;;;;8357885;28;20037;-45
2023/05/10 01:53:59;;;;;;;1.00;0.90;;;20.60;59.30;;;;;;8341497;28;20029;-47
2023/05/10 01:58:12;;;;;;;1.70;1.20;;;20.60;59.40;;;;;;8326611;28;20033;-46
2023/05/10 02:02:14;;;;;;;6.53;1.17;;;20.50;59.40;;;;;;8326597;28;20491;-44
2023/05/10 02:06:18;;;;;;;2.95;1.20;;;20.50;59.40;;;;;;8326475;28;20036;-46
2023/05/10 02:10:19;;;;;;;2.83;1.10;;;20.50;59.50;;;;;;8325377;28;20036;-47
2023/05/10 02:14:20;;;;;;;;;;;20.40;59.50;;;;;;8325505;28;20025;-47
2023/05/10 02:18:23;;;;;;;3.40;1.52;;;20.40;59.50;;;;;;8326359;28;19916;-45
2023/05/10 02:22:25;;;;;;;2.60;1.50;;;20.40;59.60;;;;;;8326887;28;20033;-47
2023/05/10 02:26:26;;;;;;;3.60;1.38;;;20.40;60.20;;;;;;8326024;28;20076;-47
2023/05/10 02:30:29;;;;;;;2.58;1.50;;;20.40;59.70;;;;;;8324764;28;20029;-47
2023/05/10 02:34:30;;;;;;;3.22;1.50;;;20.40;59.70;;;;;;8327206;28;20044;-46
2023/05/10 02:38:33;;;;;;;2.25;1.33;;;20.40;59.70;;;;;;8332357;28;20044;-45
2023/05/10 02:42:37;;;;;;;2.65;1.40;;;20.40;59.70;;;;;;8332185;28;20040;-46
2023/05/10 02:46:38;;;;;;;2.40;1.00;;;20.40;59.60;;;;;;8332061;28;20025;-45
2023/05/10 02:50:43;;;;;;;3.17;1.00;;;20.40;59.70;;;;;;8331665;28;20523;-46
2023/05/10 02:54:46;;;;;;;2.05;0.95;;;20.30;59.60;;;;;;8332295;28;20399;-45
2023/05/10 02:58:47;;;;;;;1.23;1.05;;;20.30;59.60;;;;;;8331595;28;20033;-47
2023/05/10 03:02:48;;;;;;;2.40;1.10;;;20.30;59.60;;;;;;8331618;28;20039;-45
2023/05/10 03:06:48;;;;;;;0.95;0.82;;;20.30;59.60;;;;;;8331606;28;20088;-48
2023/05/10 03:11:28;;;;;;;2.33;1.10;;;20.30;59.60;;;;;;8331201;28;20112;-46
2023/05/10 03:15:53;;;;;;;1.40;1.05;;;20.40;59.60;;;;;;8331196;28;20025;-46
2023/05/10 03:20:00;;;;;;;3.88;1.52;;;20.30;59.60;;;;;;8329651;28;20036;-46
2023/05/10 03:24:09;;;;;;;3.22;1.55;;;20.30;59.60;;;;;;8330380;28;20029;-46
2023/05/10 03:28:10;;;;;;;3.50;1.40;;;20.30;59.70;;;;;;8330577;28;20402;-47
2023/05/10 03:32:10;;;;;;;4.03;1.30;;;20.30;59.70;;;;;;8330939;28;20080;-48
2023/05/10 03:36:11;;;;;;;4.47;1.42;;;20.30;59.70;;;;;;8329422;28;20112;-46
2023/05/10 03:40:12;;;;;;;2.83;1.17;;;20.30;59.70;;;;;;8330603;28;20046;-47
2023/05/10 03:44:12;;;;;;;2.97;1.83;;;20.30;59.70;;;;;;8330128;28;20053;-46
2023/05/10 03:48:13;;;;;;;2.30;1.17;;;20.30;59.70;;;;;;8329712;28;20408;-45
2023/05/10 03:52:14;;;;;;;2.50;1.17;;;20.30;59.70;;;;;;8329378;28;20410;-46
2023/05/10 03:56:15;;;;;;;2.88;1.25;;;20.30;59.70;;;;;;8329897;28;20083;-46
2023/05/10 04:00:16;;;;;;;2.45;1.20;;;20.30;59.70;;;;;;8329510;28;20074;-47
2023/05/10 04:04:18;;;;;;;1.88;1.00;;;20.30;59.70;;;;;;8328226;28;20140;-45
2023/05/10 04:08:18;;;;;;;2.53;1.20;;;20.30;59.70;;;;;;8329402;28;20091;-45
2023/05/10 04:12:19;;;;;;;1.58;1.00;;;20.30;59.70;;;;;;8329306;28;20065;-45
2023/05/10 04:16:20;;;;;;;2.88;1.30;;;20.30;59.60;;;;;;8329193;28;20395;-45
2023/05/10 04:20:21;;;;;;;3.38;1.13;;;20.40;59.40;;;;;;8328010;28;20087;-46
2023/05/10 04:24:21;;;;;;;1.13;0.88;;;20.40;59.40;;;;;;8329407;28;20033;-48
2023/05/10 04:28:22;;;;;;;1.35;1.00;;;20.40;59.30;;;;;;8328673;28;20487;-46
2023/05/10 04:32:23;;;;;;;1.95;1.00;;;20.40;59.20;;;;;;8328862;28;20041;-45
2023/05/10 04:36:23;;;;;;;4.18;1.30;;;20.40;59.20;;;;;;8328536;28;20491;-45
2023/05/10 04:40:24;;;;;;;1.98;1.10;;;20.40;59.10;;;;;;8328379;28;20063;-46
2023/05/10 04:44:25;;;;;;;1.95;1.20;;;20.40;59.10;;;;;;8328297;28;20356;-44
2023/05/10 04:48:25;;;;;;;4.07;1.07;;;20.40;59.10;;;;;;8327232;28;20042;-46
2023/05/10 04:52:26;;;;;;;1.50;1.00;;;20.40;59.10;;;;;;8328965;28;20315;-46
2023/05/10 04:56:26;;;;;;;2.15;1.20;;;20.40;59.10;;;;;;8328011;28;20291;-46
2023/05/10 05:00:27;;;;;;;1.60;1.03;;;20.40;59.00;;;;;;8327749;28;20096;-46
2023/05/10 05:04:29;;;;;;;1.63;1.08;;;20.40;59.00;;;;;;8327750;28;20319;-45
2023/05/10 05:08:30;;;;;;;1.58;0.85;;;20.40;59.00;;;;;;8327515;28;20045;-45
2023/05/10 05:12:30;;;;;;;3.58;1.08;;;20.40;59.00;;;;;;8327638;28;20080;-45
2023/05/10 05:16:32;;;;;;;1.63;0.97;;;20.40;59.60;;;;;;8327537;28;20034;-46
2023/05/10 05:20:33;;;;;;;;;;;20.40;59.00;;;;;;8328358;28;20307;-45
2023/05/10 05:24:37;;;;;;;2.75;0.98;;;20.40;59.00;;;;;;8326662;28;19909;-46
2023/05/10 05:28:38;;;;;;;2.35;1.70;;;20.40;59.10;;;;;;8327039;28;20069;-45
2023/05/10 05:32:39;;;;;;;3.40;1.08;;;20.40;59.00;;;;;;8326159;28;20036;-45
2023/05/10 05:36:40;;;;;;;1.98;0.80;;;20.40;59.10;;;;;;8327135;28;20407;-46
2023/05/10 05:40:40;;;;;;;2.85;1.10;;;20.30;59.00;;;;;;8327072;28;20053;-46
2023/05/10 05:44:41;;;;;;;2.05;0.85;;;20.30;59.00;;;;;;8327067;28;20141;-45
2023/05/10 05:48:41;;;;;;;1.35;0.68;;;20.30;59.00;;;;;;8326494;28;20088;-45
2023/05/10 05:52:42;;;;;;;1.73;0.95;;;20.30;59.00;;;;;;8327183;28;20039;-45
2023/05/10 05:56:44;;;;;;;1.60;1.05;;;20.30;59.00;;;;;;8326711;28;20728;-46
2023/05/10 06:00:44;;;;;;;1.58;0.82;;;20.30;59.20;;;;;;8326534;28;20037;-46
2023/05/10 06:04:46;;;;;;;1.02;0.82;;;20.30;59.10;;;;;;8326718;28;20040;-45
2023/05/10 06:08:46;;;;;;;;;;;20.40;59.00;;;;;;8326977;28;20037;-45
2023/05/10 06:12:47;;;;;;;1.03;0.83;;;20.40;59.40;;;;;;8333257;28;19909;-46
2023/05/10 06:16:48;;;;;;;1.38;0.85;;;20.40;58.90;;;;;;8333154;28;20037;-46
2023/05/10 06:20:49;;;;;;;2.35;1.00;;;20.40;58.80;;;;;;8332828;28;20038;-48
2023/05/10 06:24:50;;;;;;;0.95;0.90;;;20.40;58.70;;;;;;8333255;28;20034;-45
2023/05/10 06:28:51;;;;;;;0.90;0.70;;;20.40;58.70;;;;;;8332763;28;20034;-47
2023/05/10 06:32:51;;;;;;;1.00;0.90;;;20.40;58.70;;;;;;8331247;28;20033;-45
2023/05/10 06:36:52;;;;;;;1.30;0.80;;;20.40;58.70;;;;;;8332289;28;20447;-47
2023/05/10 06:40:53;;;;;;;1.67;1.00;;;20.40;58.70;;;;;;8332284;28;20284;-48
2023/05/10 06:44:53;;;;;;;0.98;0.80;;;20.40;58.70;;;;;;8332023;28;20038;-46
2023/05/10 06:48:54;;;;;;;1.67;0.73;;;20.40;58.70;;;;;;8331922;28;20045;-45
2023/05/10 06:52:55;;;;;;;1.10;0.85;;;20.40;58.70;;;;;;8333231;28;20456;-48
2023/05/10 06:56:56;;;;;;;0.80;0.77;;;20.40;58.70;;;;;;8331699;28;20453;-45
2023/05/10 07:01:02;;;;;;;2.10;0.90;;;20.40;58.80;;;;;;8331874;28;20026;-47
2023/05/10 07:05:03;;;;;;;1.15;1.05;;;20.30;58.70;;;;;;8331446;28;20065;-46
2023/05/10 07:09:04;;;;;;;0.95;0.70;;;20.40;58.80;;;;;;8331446;28;20052;-46
2023/05/10 07:13:04;;;;;;;1.63;0.75;;;20.40;58.70;;;;;;8331444;28;20060;-47
2023/05/10 07:17:05;;;;;;;2.38;0.82;;;20.30;58.70;;;;;;8331199;28;20120;-46
2023/05/10 07:21:06;;;;;;;1.60;0.95;;;20.30;58.80;;;;;;8329367;28;20033;-46
2023/05/10 07:25:07;;;;;;;1.55;0.85;;;20.30;58.80;;;;;;8331614;28;20091;-45
2023/05/10 07:29:08;;;;;;;1.13;0.77;;;20.30;58.70;;;;;;8330854;28;20037;-47
2023/05/10 07:33:10;;;;;;;1.15;0.80;;;20.30;58.70;;;;;;8331208;28;20026;-45
2023/05/10 07:37:11;;;;;;;0.82;0.80;;;20.30;58.70;;;;;;8330630;28;20037;-48
2023/05/10 07:41:12;;;;;;;1.60;0.80;;;20.30;58.70;;;;;;8329366;28;20079;-46
2023/05/10 07:45:13;;;;;;;1.30;0.80;;;20.30;58.70;;;;;;8330205;28;20432;-45
2023/05/10 07:49:13;;;;;;;1.17;0.88;;;20.30;58.70;;;;;;8328828;28;20608;-46
2023/05/10 07:53:14;;;;;;;1.27;0.95;;;20.30;58.80;;;;;;8330693;28;20040;-47
2023/05/10 07:57:17;;;;;;;1.25;0.80;;;20.30;58.90;;;;;;8329938;28;20029;-47
2023/05/10 08:01:18;;;;;;;1.08;0.90;;;20.40;58.90;;;;;;8329900;28;20030;-47
2023/05/10 08:05:18;;;;;;;0.93;0.63;;;20.40;58.70;;;;;;8329865;28;20033;-46
2023/05/10 08:09:23;;;;;;;1.63;0.77;;;20.40;58.60;;;;;;8329502;28;20433;-46
2023/05/10 08:13:24;;;;;;;0.88;0.85;;;20.40;58.50;;;;;;8329645;28;20119;-46
2023/05/10 08:17:24;;;;;;;0.80;0.75;;;20.40;58.40;;;;;;8329428;28;20033;-46
2023/05/10 08:21:26;;;;;;;0.70;0.65;;;20.40;58.40;;;;;;8329257;28;20029;-47
2023/05/10 08:25:26;;;;;;;;;;;20.40;58.40;;;;;;8330535;28;20394;-45
2023/05/10 08:29:27;;;;;;;1.00;0.80;;;20.40;58.40;;;;;;8328859;28;19936;-47
2023/05/10 08:33:28;;;;;;;0.80;0.80;;;20.40;58.50;;;;;;8328325;28;20108;-47
2023/05/10 08:37:30;;;;;;;0.77;0.65;;;20.40;58.50;;;;;;8328834;28;20040;-45
2023/05/10 08:41:34;;;;;;;0.68;0.68;;;20.40;58.50;;;;;;8328521;28;20376;-49
2023/05/10 08:45:40;;;;;;;1.27;0.90;;;20.40;58.50;;;;;;8329130;28;20113;-44
2023/05/10 08:49:42;;;;;;;0.70;0.65;;;20.40;58.50;;;;;;8326953;28;20594;-47
2023/05/10 08:53:44;;;;;;;2.35;0.60;;;20.40;58.50;;;;;;8329082;28;20033;-45
2023/05/10 08:57:46;;;;;;;0.70;0.70;;;20.40;58.50;;;;;;8328114;28;20018;-46
2023/05/10 09:01:49;;;;;;;1.00;0.60;;;20.30;58.50;;;;;;8327002;28;20037;-47
2023/05/10 09:05:49;;;;;;;1.55;0.68;;;20.30;58.40;;;;;;8327859;28;20387;-46
2023/05/10 09:09:50;;;;;;;0.70;0.50;;;20.30;58.40;;;;;;8327953;28;20055;-47
2023/05/10 09:13:52;;;;;;;0.90;0.75;;;20.30;58.50;;;;;;8327704;28;20041;-44
2023/05/10 09:17:54;;;;;;;0.77;0.60;;;20.30;58.50;;;;;;8326526;28;20149;-46
2023/05/10 09:21:55;;;;;;;1.92;0.60;;;20.30;58.40;;;;;;8328092;28;20028;-46
2023/05/10 09:26:06;;;;;;;0.70;0.60;;;20.30;58.40;;;;;;8326262;28;20395;-46
2023/05/10 09:30:08;;;;;;;0.93;0.60;;;20.40;58.50;;;;;;8326839;28;20072;-46
2023/05/10 09:34:09;;;;;;;1.05;0.65;;;20.30;58.40;;;;;;8327294;28;20471;-45
2023/05/10 09:38:10;;;;;;;0.47;0.47;;;20.30;58.50;;;;;;8327366;28;20407;-45
2023/05/10 09:42:10;;;;;;;1.05;0.70;;;20.30;58.40;;;;;;8326873;28;20034;-45
2023/05/10 09:46:11;;;;;;;0.50;0.50;;;20.40;58.80;;;;;;8326910;28;20033;-46
2023/05/10 09:50:12;;;;;;;0.50;0.50;;;20.40;58.60;;;;;;8326567;28;20053;-46
2023/05/10 09:54:15;;;;;;;0.88;0.70;;;20.40;58.40;;;;;;8327469;28;20037;-45
2023/05/10 09:58:16;;;;;;;0.60;0.60;;;20.40;58.30;;;;;;8326795;28;20132;-46
2023/05/10 10:02:17;;;;;;;1.25;0.68;;;20.40;58.30;;;;;;8325741;28;20038;-46
2023/05/10 10:06:20;;;;;;;1.30;0.70;;;20.40;58.30;;;;;;8326523;28;20071;-46
2023/05/10 10:10:21;;;;;;;2.08;0.60;;;20.40;58.30;;;;;;8326697;28;20041;-45
2023/05/10 10:14:26;;;;;;;0.60;0.60;;;20.40;58.30;;;;;;8326323;28;20040;-46
2023/05/10 10:18:28;;;;;;;2.08;0.95;;;20.40;58.80;;;;;;8325215;28;20033;-46
2023/05/10 10:22:29;;;;;;;1.17;0.80;;;20.30;58.20;;;;;;8325731;28;20060;-46
2023/05/10 10:26:30;;;;;;;0.45;0.45;;;20.40;58.30;;;;;;8326222;28;20063;-45
2023/05/10 10:30:42;;;;;;;0.75;0.70;;;20.30;58.20;;;;;;8308482;28;20034;-47
2023/05/10 10:34:43;;;;;;;0.60;0.60;;;20.30;58.20;;;;;;8326169;28;20025;-46
2023/05/10 10:38:46;;;;;;;0.73;0.65;;;20.30;58.20;;;;;;8324903;28;20048;-46
2023/05/10 10:42:49;;;;;;;0.52;0.50;;;20.30;58.30;;;;;;8325959;28;20065;-46
2023/05/10 10:47:23;;;;;;;0.55;0.50;;;20.30;58.30;;;;;;8325994;28;20072;-47
2023/05/10 10:51:23;;;;;;;0.70;0.50;;;20.30;58.30;;;;;;8327002;28;20566;-45
2023/05/10 10:55:26;;;;;;;1.48;0.50;;;20.30;58.30;;;;;;8327370;28;20319;-46
2023/05/10 10:59:27;;;;;;;0.65;0.55;;;20.30;58.30;;;;;;8331742;28;20045;-45
2023/05/10 11:03:28;;;;;;;0.50;0.50;;;20.30;58.30;;;;;;8331811;28;20033;-46
2023/05/10 11:07:29;;;;;;;0.90;0.55;;;20.30;58.30;;;;;;8331539;28;20088;-47
2023/05/10 11:11:30;;;;;;;1.33;0.60;;;20.30;58.30;;;;;;8331918;28;20056;-46
2023/05/10 11:15:35;;;;;;;0.85;0.70;;;20.30;58.30;;;;;;8331232;28;20284;-45
2023/05/10 11:19:38;;;;;;;0.80;0.70;;;20.30;58.30;;;;;;8331202;28;20030;-45
2023/05/10 11:23:39;;;;;;;1.27;0.82;;;20.30;58.40;;;;;;8331703;28;20112;-48
2023/05/10 11:27:41;;;;;;;0.50;0.50;;;20.40;58.40;;;;;;8330842;28;20025;-48
2023/05/10 11:31:45;;;;;;;0.57;0.55;;;20.40;58.20;;;;;;8329855;28;20047;-47
2023/05/10 11:35:46;;;;;;;1.33;0.57;;;20.40;58.20;;;;;;8330804;28;20068;-50
2023/05/10 11:39:49;;;;;;;0.73;0.50;;;20.40;58.10;;;;;;8330549;28;20298;-48
2023/05/10 11:43:52;;;;;;;0.50;0.50;;;20.40;58.00;;;;;;8329246;28;20037;-48
2023/05/10 11:47:53;;;;;;;0.68;0.55;;;20.40;58.00;;;;;;8330039;28;20128;-48
2023/05/10 11:52:07;;;;;;;0.63;0.63;;;20.40;58.00;;;;;;8330762;28;20034;-49
2023/05/10 11:56:09;;;;;;;0.85;0.63;;;20.50;58.00;;;;;;8330189;28;20025;-51
2023/05/10 12:00:10;;;;;;;1.30;0.55;;;20.40;58.00;;;;;;8329862;28;20091;-47
2023/05/10 12:04:11;;;;;;;;;;;20.40;58.00;;;;;;8330080;28;20034;-48
2023/05/10 12:08:19;;;;;;;0.77;0.60;;;20.40;58.00;;;;;;8329839;28;19920;-48
2023/05/10 12:12:20;;;;;;;1.00;0.50;;;20.40;58.10;;;;;;8329392;28;20033;-48
2023/05/10 12:16:27;;;;;;;1.07;0.70;;;20.40;58.10;;;;;;8329167;28;20040;-48
2023/05/10 12:20:29;;;;;;;0.85;0.60;;;20.30;58.10;;;;;;8329133;28;20322;-50
2023/05/10 12:24:29;;;;;;;;;;;20.30;58.10;;;;;;8330038;28;20041;-49
2023/05/10 12:28:31;;;;;;;0.60;0.60;;;20.30;58.10;;;;;;8328683;28;20389;-48
2023/05/10 12:32:39;;;;;;;0.73;0.50;;;20.30;58.10;;;;;;8328822;28;20383;-49
2023/05/10 12:36:40;;;;;;;0.50;0.50;;;20.30;58.10;;;;;;8328693;28;20083;-49
2023/05/10 12:40:40;;;;;;;0.57;0.50;;;20.30;58.10;;;;;;8328637;28;20490;-48
2023/05/10 12:44:41;;;;;;;0.43;0.43;;;20.30;58.10;;;;;;8328881;28;20139;-47
2023/05/10 12:48:43;;;;;;;0.90;0.68;;;20.30;58.10;;;;;;8327579;28;20064;-51
2023/05/10 12:52:44;;;;;;;0.75;0.60;;;20.30;58.10;;;;;;8329364;28;20040;-51
2023/05/10 12:56:44;;;;;;;1.00;0.70;;;20.30;58.10;;;;;;8329363;28;20030;-48
2023/05/10 13:00:45;;;;;;;0.47;0.45;;;20.30;58.10;;;;;;8327106;28;20342;-48
2023/05/10 13:04:46;;;;;;;0.73;0.60;;;20.30;58.10;;;;;;8327916;28;20041;-46
2023/05/10 13:08:46;;;;;;;0.65;0.65;;;20.30;58.00;;;;;;8327916;28;20029;-49
2023/05/10 13:12:47;;;;;;;1.33;0.60;;;20.30;58.10;;;;;;8327874;28;20083;-48
2023/05/10 13:16:48;;;;;;;0.47;0.45;;;20.30;58.30;;;;;;8326252;28;20479;-47
2023/05/10 13:20:49;;;;;;;1.27;1.10;;;20.40;58.20;;;;;;8327140;28;20034;-54
2023/05/10 13:24:50;;;;;;;;;;;20.40;59.20;;;;;;8353354;28;20033;-56
2023/05/10 13:28:51;;;;;;;0.67;0.50;;;20.50;58.50;;;;;;8359819;28;19944;-55
2023/05/10 13:32:51;;;;;;;;;;;20.50;58.30;;;;;;8360567;28;20036;-52
2023/05/10 13:36:53;;;;;;;2.67;0.80;;;20.60;58.20;;;;;;8360098;28;19909;-53
2023/05/10 13:40:54;;;;;;;0.57;0.57;;;20.60;58.10;;;;;;8359546;28;20094;-53
2023/05/10 13:44:55;;;;;;;0.50;0.50;;;20.60;58.10;;;;;;8358335;28;20040;-56
2023/05/10 13:48:56;;;;;;;0.73;0.65;;;20.70;58.20;;;;;;8359901;28;20049;-55
2023/05/10 13:52:57;;;;;;;0.70;0.50;;;20.70;58.10;;;;;;8350315;28;20565;-57
2023/05/10 13:56:58;;;;;;;0.50;0.50;;;20.80;58.10;;;;;;8340920;28;20465;-57
2023/05/10 14:00:59;;;;;;;0.65;0.52;;;20.80;58.00;;;;;;8359736;28;20033;-57
2023/05/10 14:05:00;;;;;;;0.53;0.50;;;20.80;58.00;;;;;;8359508;28;20037;-56
2023/05/10 14:09:01;;;;;;;1.48;0.40;;;20.80;58.00;;;;;;8359608;28;20295;-57
2023/05/10 14:13:03;;;;;;;1.13;0.60;;;20.80;57.80;;;;;;8359489;28;20033;-58
2023/05/10 14:17:03;;;;;;;0.70;0.57;;;20.80;57.60;;;;;;8359145;28;20025;-53
2023/05/10 14:21:04;;;;;;;0.43;0.38;;;20.80;57.80;;;;;;8359334;28;20060;-56
2023/05/10 14:25:05;;;;;;;0.40;0.40;;;20.80;57.70;;;;;;8353108;28;20482;-57
2023/05/10 14:29:06;;;;;;;1.38;0.73;;;20.80;57.90;;;;;;8359134;28;20040;-57
2023/05/10 14:33:07;;;;;;;0.55;0.47;;;20.80;57.90;;;;;;8363534;28;20091;-57
2023/05/10 14:37:11;;;;;;;1.15;0.73;;;20.80;57.90;;;;;;8364472;28;20036;-58
2023/05/10 14:41:14;;;;;;;0.43;0.43;;;20.80;58.00;;;;;;8364251;28;20036;-58
2023/05/10 14:45:15;;;;;;;0.70;0.50;;;20.80;58.00;;;;;;8365390;28;20051;-57
2023/05/10 14:49:15;;;;;;;0.55;0.55;;;20.80;58.10;;;;;;8365057;28;20060;-58
2023/05/10 14:53:16;;;;;;;0.70;0.70;;;20.80;58.20;;;;;;8353089;28;20048;-56
2023/05/10 14:57:17;;;;;;;0.60;0.60;;;20.80;58.10;;;;;;8332032;28;20036;-54
2023/05/10 15:01:17;;;;;;;0.80;0.43;;;20.70;58.20;;;;;;8331792;28;20040;-57
2023/05/10 15:05:18;;;;;;;0.57;0.57;;;20.70;58.20;;;;;;8330554;28;20060;-57
2023/05/10 15:09:18;;;;;;;0.43;0.43;;;20.70;58.10;;;;;;8330132;28;20311;-57
2023/05/10 15:13:19;;;;;;;0.45;0.45;;;20.80;58.20;;;;;;8331501;28;20304;-57
2023/05/10 15:17:20;;;;;;;0.88;0.60;;;20.70;58.10;;;;;;8356297;28;20040;-56
2023/05/10 15:21:21;;;;;;;0.68;0.60;;;20.80;58.30;;;;;;8363988;28;20104;-56
2023/05/10 15:25:23;;;;;;;;;;;20.70;58.40;;;;;;8351430;28;20033;-55
2023/05/10 15:29:24;;;;;;;2.47;0.63;;;20.70;58.40;;;;;;8363708;28;19964;-54
2023/05/10 15:33:24;;;;;;;0.77;0.60;;;20.70;58.40;;;;;;8362957;28;20033;-54
2023/05/10 15:37:25;;;;;;;0.52;0.40;;;20.70;58.50;;;;;;8362412;28;20033;-55
2023/05/10 15:41:26;;;;;;;0.73;0.50;;;20.70;58.50;;;;;;8362926;28;20074;-57
2023/05/10 15:45:27;;;;;;;0.85;0.60;;;20.70;58.50;;;;;;8363790;28;20056;-56
2023/05/10 15:49:28;;;;;;;0.60;0.50;;;20.70;58.60;;;;;;8407134;28;20106;-56
2023/05/10 15:53:28;;;;;;;0.85;0.55;;;20.70;58.60;;;;;;8411377;28;20032;-56
2023/05/10 15:57:29;;;;;;;1.10;0.52;;;20.60;58.50;;;;;;8429602;28;20110;-53
2023/05/10 16:01:31;;;;;;;1.02;0.45;;;20.60;58.60;;;;;;8429397;28;20047;-53
2023/05/10 16:05:32;;;;;;;2.83;0.98;;;20.60;58.60;;;;;;8429179;28;20020;-53
2023/05/10 16:09:33;;;;;;;1.25;0.75;;;20.60;58.60;;;;;;8429107;28;20028;-55
2023/05/10 16:13:33;;;;;;;0.60;0.60;;;20.60;58.60;;;;;;8428895;28;20043;-57
2023/05/10 16:17:34;;;;;;;0.60;0.60;;;20.60;59.20;;;;;;8428856;28;20380;-56
2023/05/10 16:21:35;;;;;;;2.08;0.60;;;20.60;58.60;;;;;;8428675;28;20512;-56
2023/05/10 16:25:35;;;;;;;1.33;0.50;;;20.60;58.60;;;;;;8414733;28;20028;-54
2023/05/10 16:29:36;;;;;;;1.70;0.52;;;20.60;58.70;;;;;;8428507;28;20551;-52
2023/05/10 16:33:37;;;;;;;0.50;0.50;;;20.60;58.70;;;;;;8428278;28;20543;-55
2023/05/10 16:37:37;;;;;;;1.08;0.50;;;20.60;58.80;;;;;;8428230;28;20557;-56
2023/05/10 16:41:38;;;;;;;1.13;1.00;;;20.60;58.80;;;;;;8410130;28;20107;-51
2023/05/10 16:45:39;;;;;;;0.75;0.50;;;20.50;58.70;;;;;;8409845;28;20770;-55
2023/05/10 16:49:40;;;;;;;1.65;0.68;;;20.60;58.80;;;;;;8427584;28;20047;-54
2023/05/10 16:53:41;;;;;;;1.40;0.60;;;20.50;58.80;;;;;;8427124;28;20519;-53
2023/05/10 16:57:41;;;;;;;0.65;0.57;;;20.50;58.90;;;;;;8427661;28;20420;-54
2023/05/10 17:01:42;;;;;;;0.50;0.40;;;20.50;58.90;;;;;;8409428;28;20036;-48
2023/05/10 17:05:42;;;;;;;1.25;0.57;;;20.50;58.80;;;;;;8427579;28;20524;-49
2023/05/10 17:09:43;;;;;;;3.15;0.70;;;20.60;58.70;;;;;;8427233;28;20122;-53
2023/05/10 17:13:44;;;;;;;1.50;0.60;;;20.60;58.80;;;;;;8427054;28;20032;-50
2023/05/10 17:17:46;;;;;;;1.70;0.70;;;20.60;58.70;;;;;;8427107;28;20359;-53
2023/05/10 17:21:47;;;;;;;0.82;0.63;;;20.60;58.80;;;;;;8426465;28;20682;-52
2023/05/10 17:25:47;;;;;;;2.60;0.50;;;20.60;58.90;;;;;;8413663;28;20444;-46
2023/05/10 17:29:48;;;;;;;1.00;0.38;;;20.60;58.90;;;;;;8426530;28;20039;-51
2023/05/10 17:33:48;;;;;;;3.88;0.63;;;20.60;58.90;;;;;;8426593;28;20059;-51
2023/05/10 17:37:49;;;;;;;2.25;0.40;;;20.60;59.00;;;;;;8426737;28;20036;-51
2023/05/10 17:41:50;;;;;;;2.40;0.90;;;20.60;58.60;;;;;;8408084;28;20028;-53
2023/05/10 17:45:50;;;;;;;10.70;4.07;;;20.60;58.50;;;;;;8405358;28;20028;-46
2023/05/10 17:49:51;;;;;;;9.27;3.23;;;20.60;58.60;;;;;;8426130;28;20044;-49
2023/05/10 17:53:52;;;;;;;6.85;3.20;;;20.60;58.60;;;;;;8426564;28;20335;-50
2023/05/10 17:57:52;;;;;;;5.88;2.70;;;20.60;58.60;;;;;;8426793;28;20028;-47
2023/05/10 18:01:53;;;;;;;6.57;2.90;;;20.60;58.60;;;;;;8427020;28;20572;-48
2023/05/10 18:05:54;;;;;;;9.95;3.08;;;20.60;58.60;;;;;;8429096;28;20460;-49
2023/05/10 18:09:55;;;;;;;4.63;2.28;;;20.60;58.60;;;;;;8411987;28;20066;-53
2023/05/10 18:13:56;;;;;;;4.38;2.30;;;20.60;58.60;;;;;;8386005;28;20104;-52
2023/05/10 18:17:57;;;;;;;3.25;2.08;;;20.70;58.80;;;;;;8400958;28;20058;-48
2023/05/10 18:21:58;;;;;;;4.25;1.83;;;20.70;58.70;;;;;;8413218;28;20039;-52
2023/05/10 18:25:58;;;;;;;7.57;2.10;;;20.70;58.70;;;;;;8381626;28;20366;-49
2023/05/10 18:29:59;;;;;;;4.43;1.90;;;20.70;58.70;;;;;;8429830;28;20515;-49
2023/05/10 18:34:00;;;;;;;5.43;2.10;;;20.80;58.70;;;;;;8433091;28;20032;-50
2023/05/10 18:38:01;;;;;;;25.00;10.50;;;20.70;58.80;;;;;;8432794;28;20317;-48
2023/05/10 18:42:03;;;;;;;17.60;8.55;;;20.70;58.90;;;;;;8432624;28;20043;-45
2023/05/10 18:46:03;;;;;;;19.98;7.68;;;20.70;59.00;;;;;;8410147;28;20103;-48
2023/05/10 18:50:05;;;;;;;22.40;7.35;;;20.70;58.90;;;;;;8398701;28;20059;-50
2023/05/10 18:54:06;;;;;;;15.68;6.45;;;20.70;58.90;;;;;;8405038;28;20031;-49
2023/05/10 18:58:06;;;;;;;13.77;6.65;;;20.70;58.90;;;;;;8431896;28;20036;-55
2023/05/10 19:02:07;;;;;;;13.77;5.57;;;20.70;58.90;;;;;;8414002;28;20032;-52
2023/05/10 19:06:08;;;;;;;10.40;5.28;;;20.70;58.90;;;;;;8431721;28;20398;-49
2023/05/10 19:10:12;;;;;;;11.30;5.20;;;20.70;58.90;;;;;;8413587;28;20032;-54
2023/05/10 19:14:13;;;;;;;9.73;4.90;;;20.70;58.90;;;;;;8431566;28;20078;-46
2023/05/10 19:18:15;;;;;;;;;;;20.70;58.70;;;;;;8412712;28;20044;-51
2023/05/10 19:22:15;;;;;;;10.98;4.78;;;20.70;58.80;;;;;;8427597;28;19908;-48
2023/05/10 19:26:16;;;;;;;11.60;5.10;;;20.80;58.80;;;;;;8397644;28;20036;-55
2023/05/10 19:30:17;;;;;;;13.55;4.70;;;20.70;58.70;;;;;;8397394;28;20656;-55
2023/05/10 19:34:18;;;;;;;10.02;4.28;;;20.70;58.70;;;;;;8397800;28;20426;-48
2023/05/10 19:38:23;;;;;;;12.45;4.50;;;20.70;58.80;;;;;;8379633;28;20029;-54
2023/05/10 19:42:24;;;;;;;9.68;4.03;;;20.70;58.80;;;;;;8397225;28;20036;-55
2023/05/10 19:46:25;;;;;;;8.23;4.28;;;20.70;58.90;;;;;;8397446;28;20035;-54
2023/05/10 19:50:25;;;;;;;10.18;4.40;;;20.70;59.00;;;;;;8397223;28;20045;-52
2023/05/10 19:54:26;;;;;;;8.68;4.28;;;20.70;58.90;;;;;;8405936;28;20039;-54
2023/05/10 19:58:27;;;;;;;9.43;4.20;;;20.70;58.80;;;;;;8430433;28;20032;-53
2023/05/10 20:02:28;;;;;;;8.93;3.97;;;20.70;59.00;;;;;;8430106;28;20040;-50
2023/05/10 20:06:29;;;;;;;6.97;3.40;;;20.70;59.10;;;;;;8430170;28;20118;-53
2023/05/10 20:10:29;;;;;;;7.95;3.90;;;20.70;59.40;;;;;;8429989;28;20317;-51
2023/05/10 20:14:30;;;;;;;7.15;3.40;;;20.70;59.20;;;;;;8429694;28;20574;-48
2023/05/10 20:18:31;;;;;;;13.57;4.35;;;20.70;59.50;;;;;;8429841;28;20444;-53
2023/05/10 20:22:31;;;;;;;8.63;4.32;;;20.70;59.00;;;;;;8428272;28;20131;-48
2023/05/10 20:26:32;;;;;;;6.53;3.45;;;20.60;59.40;;;;;;8429499;28;20036;-51
2023/05/10 20:30:33;;;;;;;;;;;20.70;59.60;;;;;;8428727;28;20032;-50
2023/05/10 20:34:34;;;;;;;5.97;3.30;;;20.70;59.40;;;;;;8429327;28;19998;-53
2023/05/10 20:38:35;;;;;;;10.88;4.53;;;20.70;59.50;;;;;;8420487;28;20127;-55
2023/05/10 20:42:36;;;;;;;;;;;20.70;59.50;;;;;;8413220;28;20377;-53
2023/05/10 20:46:37;;;;;;;7.30;3.43;;;20.60;59.40;;;;;;8413299;28;20174;-53
2023/05/10 20:50:37;;;;;;;8.60;3.42;;;20.60;59.20;;;;;;8393506;28;20470;-54
2023/05/10 20:54:38;;;;;;;35.47;15.35;;;20.60;59.00;;;;;;8396634;28;20687;-52
2023/05/10 20:58:38;;;;;;;24.45;10.93;;;20.60;59.10;;;;;;8428522;28;20040;-53
2023/05/10 21:02:44;;;;;;;20.53;9.67;;;20.60;59.20;;;;;;8428383;28;20036;-54
2023/05/10 21:06:45;;;;;;;18.83;8.55;;;20.60;59.10;;;;;;8428370;28;20294;-54